Time;durP1;ratioP1;P1;durP2;ratioP2;P2;SDS_P1;SDS_P2;PMS_P1;PMS_P2;Temp;Humidity;BMP_temperature;BMP_pressure;BME280_temperature;BME280_humidity;BME280_pressure;Samples;Min_cycle;Max_cycle;Signal;HPM_P1;HPM_P2
2021/05/14 00:02:17;;;;;;;1.30;0.73;;;22.20;50.00;;;;;;5113068;28;20079;-44
2021/05/14 00:04:44;;;;;;;0.82;0.70;;;22.10;49.90;;;;;;5110498;28;20040;-41
2021/05/14 00:07:11;;;;;;;0.85;0.60;;;22.10;49.80;;;;;;5102983;28;20376;-44
2021/05/14 00:09:41;;;;;;;0.93;0.80;;;22.10;49.80;;;;;;5112255;28;20054;-41
2021/05/14 00:12:09;;;;;;;0.98;0.80;;;22.10;49.80;;;;;;5110906;27;21179;-43
2021/05/14 00:14:36;;;;;;;0.68;0.60;;;22.10;49.80;;;;;;5111548;28;20453;-41
2021/05/14 00:17:03;;;;;;;0.88;0.68;;;22.10;49.80;;;;;;5097681;28;20040;-41
2021/05/14 00:19:30;;;;;;;1.13;0.80;;;22.10;49.80;;;;;;5112858;27;20062;-40
2021/05/14 00:21:58;;;;;;;0.90;0.80;;;22.10;49.80;;;;;;5112019;28;20449;-40
2021/05/14 00:24:26;;;;;;;1.33;0.90;;;22.10;49.80;;;;;;5110284;28;20047;-42
2021/05/14 00:26:53;;;;;;;0.70;0.70;;;22.10;50.50;;;;;;5101080;28;20055;-44
2021/05/14 00:29:20;;;;;;;0.93;0.70;;;22.10;49.80;;;;;;5111534;27;20101;-44
2021/05/14 00:31:47;;;;;;;0.80;0.68;;;22.10;49.90;;;;;;5111822;27;20564;-42
2021/05/14 00:34:14;;;;;;;0.90;0.60;;;22.10;49.90;;;;;;5111943;28;20043;-41
2021/05/14 00:36:41;;;;;;;0.98;0.70;;;22.10;49.80;;;;;;5109960;28;20044;-43
2021/05/14 00:39:08;;;;;;;0.93;0.70;;;22.10;49.90;;;;;;5112261;28;20376;-41
2021/05/14 00:41:35;;;;;;;0.73;0.63;;;22.10;49.80;;;;;;5111485;27;20039;-43
2021/05/14 00:44:30;;;;;;;0.90;0.60;;;22.10;49.80;;;;;;5112214;27;20052;-43
2021/05/14 00:47:00;;;;;;;0.70;0.60;;;22.10;50.50;;;;;;5111832;28;20088;-41
2021/05/14 00:49:27;;;;;;;0.85;0.73;;;22.10;49.90;;;;;;5110364;28;20096;-43
2021/05/14 00:51:56;;;;;;;0.80;0.60;;;22.10;49.90;;;;;;5110969;28;20462;-40
2021/05/14 00:54:26;;;;;;;0.88;0.75;;;22.10;49.90;;;;;;5111749;28;20104;-42
2021/05/14 00:56:54;;;;;;;0.75;0.70;;;22.10;49.90;;;;;;5108840;28;20048;-39
2021/05/14 00:59:21;;;;;;;1.13;0.82;;;22.10;49.90;;;;;;5111548;28;20066;-41
2021/05/14 01:01:48;;;;;;;0.70;0.50;;;22.10;49.90;;;;;;5110026;28;20051;-41
2021/05/14 01:04:15;;;;;;;1.00;0.70;;;22.10;49.90;;;;;;5111564;28;20044;-40
2021/05/14 01:06:42;;;;;;;0.63;0.52;;;22.10;49.90;;;;;;5111488;28;20059;-40
2021/05/14 01:09:10;;;;;;;0.80;0.75;;;22.10;49.90;;;;;;5097882;28;20461;-41
2021/05/14 01:11:37;;;;;;;0.80;0.60;;;22.10;49.90;;;;;;5110564;27;20100;-40
2021/05/14 01:14:04;;;;;;;0.90;0.60;;;22.10;49.90;;;;;;5110677;28;20113;-40
2021/05/14 01:16:31;;;;;;;0.50;0.50;;;22.10;49.90;;;;;;5109985;28;20047;-40
2021/05/14 01:18:58;;;;;;;0.73;0.60;;;22.10;49.90;;;;;;5111450;28;20044;-40
2021/05/14 01:21:25;;;;;;;0.82;0.75;;;22.10;49.90;;;;;;5109192;28;20407;-40
2021/05/14 01:23:53;;;;;;;0.70;0.70;;;22.10;49.90;;;;;;5111288;28;20455;-41
2021/05/14 01:26:21;;;;;;;0.90;0.70;;;22.10;49.90;;;;;;5111115;28;20108;-40
2021/05/14 01:28:48;;;;;;;0.90;0.80;;;22.10;49.90;;;;;;5108980;28;20048;-40
2021/05/14 01:31:15;;;;;;;0.85;0.82;;;22.10;49.90;;;;;;5110792;28;20093;-40
2021/05/14 01:33:43;;;;;;;2.17;0.85;;;22.10;49.90;;;;;;5109599;28;20304;-40
2021/05/14 01:36:10;;;;;;;0.90;0.65;;;22.10;50.10;;;;;;5113378;28;20483;-40
2021/05/14 01:38:37;;;;;;;0.80;0.60;;;22.10;49.90;;;;;;5105642;28;20047;-40
2021/05/14 01:41:05;;;;;;;1.08;0.93;;;22.10;49.90;;;;;;5117216;27;20155;-40
2021/05/14 01:43:33;;;;;;;1.10;0.80;;;22.10;49.90;;;;;;5117460;27;20047;-42
2021/05/14 01:46:05;;;;;;;0.63;0.55;;;22.10;49.90;;;;;;5116625;28;20111;-40
2021/05/14 01:48:33;;;;;;;0.60;0.47;;;22.10;50.50;;;;;;5116311;27;20047;-41
2021/05/14 01:51:09;;;;;;;1.13;0.63;;;22.10;49.90;;;;;;5117745;28;20047;-40
2021/05/14 01:53:36;;;;;;;0.90;0.70;;;22.10;49.90;;;;;;5116146;27;20449;-40
2021/05/14 01:56:04;;;;;;;0.55;0.52;;;22.10;49.90;;;;;;5117699;27;20047;-40
2021/05/14 01:58:31;;;;;;;1.30;0.70;;;22.10;49.90;;;;;;5116949;28;20048;-39
2021/05/14 02:00:58;;;;;;;0.57;0.50;;;22.10;50.00;;;;;;5116305;27;20043;-40
2021/05/14 02:03:26;;;;;;;0.60;0.50;;;22.10;49.90;;;;;;5118022;28;20043;-41
2021/05/14 02:05:53;;;;;;;0.77;0.60;;;22.10;49.90;;;;;;5103263;28;20516;-45
2021/05/14 02:08:20;;;;;;;0.88;0.63;;;22.10;49.90;;;;;;5117518;27;20441;-41
2021/05/14 02:10:47;;;;;;;0.80;0.52;;;22.10;50.00;;;;;;5117263;28;20044;-43
2021/05/14 02:13:14;;;;;;;0.85;0.68;;;22.10;49.90;;;;;;5117688;27;20047;-43
2021/05/14 02:15:41;;;;;;;0.60;0.60;;;22.10;50.00;;;;;;5116967;27;20096;-41
2021/05/14 02:18:08;;;;;;;0.60;0.60;;;22.10;50.00;;;;;;5117212;27;20078;-40
2021/05/14 02:20:35;;;;;;;0.77;0.70;;;22.10;50.00;;;;;;5118027;27;20047;-40
2021/05/14 02:23:03;;;;;;;0.75;0.60;;;22.10;49.90;;;;;;5116855;28;20452;-40
2021/05/14 02:25:30;;;;;;;0.70;0.68;;;22.10;50.00;;;;;;5116265;27;20447;-40
2021/05/14 02:27:57;;;;;;;0.50;0.50;;;22.10;50.00;;;;;;5116630;27;20551;-39
2021/05/14 02:30:25;;;;;;;0.60;0.60;;;22.10;49.90;;;;;;5116310;27;20044;-42
2021/05/14 02:32:52;;;;;;;0.65;0.65;;;22.10;50.00;;;;;;5117111;27;20063;-41
2021/05/14 02:35:19;;;;;;;0.82;0.70;;;22.10;50.00;;;;;;5117266;28;20518;-42
2021/05/14 02:37:46;;;;;;;0.88;0.60;;;22.10;49.90;;;;;;5116253;27;20047;-40
2021/05/14 02:40:14;;;;;;;0.70;0.60;;;22.10;49.90;;;;;;5117157;27;20046;-40
2021/05/14 02:42:42;;;;;;;0.77;0.70;;;22.10;50.00;;;;;;5116662;28;20042;-39
2021/05/14 02:45:09;;;;;;;0.93;0.70;;;22.10;50.00;;;;;;5115881;27;20413;-40
2021/05/14 02:47:37;;;;;;;0.73;0.57;;;22.10;50.00;;;;;;5114806;28;20067;-41
2021/05/14 02:50:05;;;;;;;0.60;0.60;;;22.10;50.00;;;;;;5112246;28;20040;-43
2021/05/14 02:52:32;;;;;;;0.80;0.60;;;22.10;50.00;;;;;;5103534;28;20048;-39
2021/05/14 02:55:00;;;;;;;0.60;0.60;;;22.10;50.00;;;;;;5113200;28;20043;-40
2021/05/14 02:57:28;;;;;;;0.60;0.57;;;22.10;50.00;;;;;;5112765;28;20562;-45
2021/05/14 02:59:55;;;;;;;0.73;0.52;;;22.10;50.00;;;;;;5114339;28;20040;-42
2021/05/14 03:02:22;;;;;;;0.57;0.57;;;22.10;50.00;;;;;;5113603;27;20047;-43
2021/05/14 03:04:49;;;;;;;0.65;0.43;;;22.10;50.00;;;;;;5112549;28;20055;-44
2021/05/14 03:07:16;;;;;;;0.73;0.60;;;22.10;50.00;;;;;;5085726;28;20484;-44
2021/05/14 03:09:44;;;;;;;0.80;0.57;;;22.10;50.00;;;;;;5101092;28;20698;-43
2021/05/14 03:12:11;;;;;;;0.90;0.80;;;22.10;50.00;;;;;;5113695;28;20047;-43
2021/05/14 03:14:38;;;;;;;0.60;0.50;;;22.10;50.00;;;;;;5111054;27;20052;-41
2021/05/14 03:17:05;;;;;;;0.80;0.60;;;22.10;50.00;;;;;;5112771;28;20089;-40
2021/05/14 03:19:33;;;;;;;0.60;0.60;;;22.10;50.00;;;;;;5113106;28;20055;-42
2021/05/14 03:22:00;;;;;;;0.50;0.50;;;22.10;50.00;;;;;;5112162;28;20044;-44
2021/05/14 03:24:29;;;;;;;0.80;0.70;;;22.10;50.00;;;;;;5112896;28;20083;-44
2021/05/14 03:26:56;;;;;;;0.45;0.45;;;22.10;50.40;;;;;;5112798;28;20075;-40
2021/05/14 03:29:23;;;;;;;0.60;0.55;;;22.10;50.00;;;;;;5112291;27;20420;-42
2021/05/14 03:31:51;;;;;;;0.40;0.40;;;22.10;50.00;;;;;;5113270;28;20051;-41
2021/05/14 03:34:19;;;;;;;0.57;0.50;;;22.10;50.10;;;;;;5110682;28;20100;-40
2021/05/14 03:36:46;;;;;;;0.80;0.68;;;22.10;50.00;;;;;;5113569;28;20043;-44
2021/05/14 03:39:15;;;;;;;0.55;0.50;;;22.10;50.00;;;;;;5112718;28;20066;-42
2021/05/14 03:41:53;;;;;;;0.95;0.70;;;22.10;50.00;;;;;;5112015;28;20108;-41
2021/05/14 03:44:21;;;;;;;0.90;0.80;;;22.10;50.00;;;;;;5113383;28;20055;-40
2021/05/14 03:46:48;;;;;;;0.52;0.40;;;22.10;50.00;;;;;;5111465;28;20407;-41
2021/05/14 03:49:15;;;;;;;0.57;0.50;;;22.10;50.00;;;;;;5103274;28;20043;-41
2021/05/14 03:51:42;;;;;;;0.55;0.55;;;22.10;50.10;;;;;;5112846;28;20079;-40
2021/05/14 03:54:10;;;;;;;0.60;0.60;;;22.10;50.00;;;;;;5111488;27;20044;-44
2021/05/14 03:56:37;;;;;;;0.73;0.65;;;22.10;50.00;;;;;;5112411;28;20559;-41
2021/05/14 03:59:04;;;;;;;0.70;0.60;;;22.10;50.00;;;;;;5110641;28;20419;-41
2021/05/14 04:01:31;;;;;;;0.68;0.57;;;22.10;50.00;;;;;;5112587;28;20047;-41
2021/05/14 04:03:59;;;;;;;0.77;0.60;;;22.10;50.00;;;;;;5112247;28;20043;-41
2021/05/14 04:06:27;;;;;;;1.17;0.73;;;22.10;50.10;;;;;;5110681;27;20043;-43
2021/05/14 04:08:54;;;;;;;0.63;0.60;;;22.10;50.10;;;;;;5112075;28;20108;-40
2021/05/14 04:16:34;;;;;;;0.70;0.40;;;22.10;50.00;;;;;;5112724;28;20461;-40
2021/05/14 04:19:02;;;;;;;0.60;0.55;;;22.10;50.00;;;;;;5111218;27;20069;-41
2021/05/14 04:21:29;;;;;;;0.50;0.50;;;22.10;50.60;;;;;;5102369;28;20411;-41
2021/05/14 04:23:57;;;;;;;0.77;0.60;;;22.10;50.00;;;;;;5111786;28;20058;-40
2021/05/14 04:26:24;;;;;;;0.60;0.55;;;22.10;50.10;;;;;;5110045;28;20044;-40
2021/05/14 04:28:51;;;;;;;0.50;0.40;;;22.10;50.10;;;;;;5112050;28;20108;-41
2021/05/14 04:31:18;;;;;;;0.50;0.50;;;22.10;50.00;;;;;;5110715;28;20518;-42
2021/05/14 04:33:45;;;;;;;0.50;0.43;;;22.10;50.10;;;;;;5100905;28;20511;-42
2021/05/14 04:36:13;;;;;;;0.55;0.50;;;22.10;50.10;;;;;;5111876;28;20948;-43
2021/05/14 04:38:40;;;;;;;0.85;0.57;;;22.10;50.00;;;;;;5110318;27;20078;-40
2021/05/14 04:41:08;;;;;;;0.52;0.45;;;22.10;50.00;;;;;;5112010;28;20047;-41
2021/05/14 04:43:35;;;;;;;0.60;0.50;;;22.10;50.10;;;;;;5111495;28;20058;-40
2021/05/14 04:46:02;;;;;;;1.23;0.68;;;22.10;50.00;;;;;;5111050;28;20054;-40
2021/05/14 04:48:41;;;;;;;0.85;0.60;;;22.10;50.00;;;;;;5111886;28;20051;-40
2021/05/14 04:51:09;;;;;;;0.50;0.45;;;22.10;50.00;;;;;;5109388;28;20104;-41
2021/05/14 04:53:36;;;;;;;0.70;0.60;;;22.10;50.10;;;;;;5110917;28;20372;-40
2021/05/14 04:56:04;;;;;;;0.63;0.52;;;22.10;50.10;;;;;;5110786;28;20214;-41
2021/05/14 04:58:31;;;;;;;0.70;0.50;;;22.10;50.00;;;;;;5110063;28;20089;-39
2021/05/14 05:00:59;;;;;;;0.30;0.30;;;22.10;50.10;;;;;;5111245;28;20187;-41
2021/05/14 05:03:26;;;;;;;0.75;0.60;;;22.10;50.00;;;;;;5111689;28;20376;-42
2021/05/14 05:05:54;;;;;;;0.57;0.40;;;22.10;50.00;;;;;;5110700;28;20437;-39
2021/05/14 05:08:21;;;;;;;0.40;0.40;;;22.10;50.00;;;;;;5111214;28;20047;-40
2021/05/14 05:10:50;;;;;;;0.50;0.35;;;22.10;50.10;;;;;;5109644;28;20443;-40
2021/05/14 05:13:17;;;;;;;1.08;0.60;;;22.10;50.00;;;;;;5110565;28;20043;-42
2021/05/14 05:15:44;;;;;;;0.52;0.52;;;22.10;50.00;;;;;;5109772;28;20564;-42
2021/05/14 05:18:11;;;;;;;0.43;0.40;;;22.10;50.00;;;;;;5110807;28;20040;-41
2021/05/14 05:20:38;;;;;;;0.82;0.68;;;22.10;50.00;;;;;;5110939;28;20054;-44
2021/05/14 05:23:07;;;;;;;0.63;0.60;;;22.10;50.00;;;;;;5097938;28;20461;-39
2021/05/14 05:25:34;;;;;;;0.40;0.40;;;22.10;50.00;;;;;;5110283;28;20040;-41
2021/05/14 05:28:03;;;;;;;0.52;0.50;;;22.10;50.00;;;;;;5098957;28;20380;-40
2021/05/14 05:30:30;;;;;;;0.43;0.43;;;22.10;50.00;;;;;;5109832;27;20051;-41
2021/05/14 05:32:57;;;;;;;0.93;0.63;;;22.10;50.00;;;;;;5111183;28;20044;-43
2021/05/14 05:35:24;;;;;;;0.40;0.40;;;22.10;50.00;;;;;;5109327;28;20056;-41
2021/05/14 05:37:53;;;;;;;0.60;0.60;;;22.10;50.00;;;;;;5111388;28;20184;-41
2021/05/14 05:40:21;;;;;;;0.57;0.50;;;22.10;50.00;;;;;;5110532;28;20039;-41
2021/05/14 05:42:48;;;;;;;0.70;0.60;;;22.10;50.00;;;;;;5109903;28;20051;-40
2021/05/14 05:45:20;;;;;;;0.50;0.40;;;22.10;50.00;;;;;;5100644;28;20048;-42
2021/05/14 05:47:47;;;;;;;0.80;0.50;;;22.10;50.00;;;;;;5109836;28;20092;-42
2021/05/14 05:50:14;;;;;;;0.50;0.50;;;22.10;50.00;;;;;;5110083;28;20136;-40
2021/05/14 05:52:41;;;;;;;0.50;0.50;;;22.10;50.00;;;;;;5109881;28;20104;-40
2021/05/14 05:55:08;;;;;;;0.50;0.50;;;22.10;50.00;;;;;;5109487;28;20070;-42
2021/05/14 05:57:35;;;;;;;0.70;0.50;;;22.10;50.00;;;;;;5110537;28;20047;-41
2021/05/14 06:00:04;;;;;;;0.80;0.60;;;22.10;50.00;;;;;;5109333;28;20491;-41
2021/05/14 06:02:31;;;;;;;0.65;0.50;;;22.10;50.00;;;;;;5110009;28;20533;-40
2021/05/14 06:04:58;;;;;;;0.57;0.55;;;22.10;50.00;;;;;;5110042;28;20056;-40
2021/05/14 06:07:25;;;;;;;0.75;0.50;;;22.10;50.00;;;;;;5108948;28;20062;-40
2021/05/14 06:09:52;;;;;;;0.60;0.47;;;22.10;50.00;;;;;;5100585;28;20048;-41
2021/05/14 06:12:20;;;;;;;0.77;0.45;;;22.10;50.00;;;;;;5110000;28;20035;-41
2021/05/14 06:14:47;;;;;;;0.73;0.60;;;22.10;50.00;;;;;;5109485;28;20060;-40
2021/05/14 06:17:14;;;;;;;0.30;0.30;;;22.10;50.00;;;;;;5109930;28;20092;-41
2021/05/14 06:19:47;;;;;;;0.60;0.45;;;22.10;50.00;;;;;;5108898;28;20043;-41
2021/05/14 06:22:14;;;;;;;0.43;0.43;;;22.10;50.00;;;;;;5111376;28;20449;-40
2021/05/14 06:24:41;;;;;;;0.63;0.52;;;22.10;50.00;;;;;;5114073;28;20075;-39
2021/05/14 06:27:08;;;;;;;0.80;0.50;;;22.10;50.00;;;;;;5113168;27;20047;-40
2021/05/14 06:29:35;;;;;;;0.88;0.60;;;22.10;50.00;;;;;;5104505;28;20101;-40
2021/05/14 06:32:03;;;;;;;0.40;0.40;;;22.10;50.60;;;;;;5099901;28;20050;-40
2021/05/14 06:34:30;;;;;;;0.40;0.40;;;22.10;50.00;;;;;;5114337;27;20039;-40
2021/05/14 06:36:57;;;;;;;0.63;0.50;;;22.10;50.00;;;;;;5114107;28;20070;-41
2021/05/14 06:39:24;;;;;;;0.60;0.60;;;22.10;50.00;;;;;;5112182;28;20079;-41
2021/05/14 06:41:51;;;;;;;1.30;0.50;;;22.10;50.00;;;;;;5114424;28;20052;-40
2021/05/14 06:44:19;;;;;;;0.57;0.57;;;22.10;50.00;;;;;;5112811;27;20127;-40
2021/05/14 06:46:46;;;;;;;0.65;0.50;;;22.10;49.90;;;;;;5113692;27;20044;-40
2021/05/14 06:49:13;;;;;;;0.60;0.40;;;22.10;50.00;;;;;;5113585;28;20585;-42
2021/05/14 06:51:40;;;;;;;0.80;0.38;;;22.10;50.00;;;;;;5112765;27;20635;-42
2021/05/14 06:54:07;;;;;;;0.52;0.40;;;22.10;50.00;;;;;;5114351;28;20387;-39
2021/05/14 06:56:35;;;;;;;0.40;0.40;;;22.20;50.10;;;;;;5113415;28;20043;-39
2021/05/14 06:59:02;;;;;;;0.50;0.38;;;22.10;50.00;;;;;;5102428;28;20548;-41
2021/05/14 07:01:29;;;;;;;0.50;0.40;;;22.10;50.00;;;;;;5113623;28;20537;-40
2021/05/14 07:03:56;;;;;;;0.57;0.50;;;22.10;49.90;;;;;;5112318;28;20037;-40
2021/05/14 07:06:24;;;;;;;0.45;0.45;;;22.10;50.00;;;;;;5113641;27;20379;-39
2021/05/14 07:08:52;;;;;;;0.65;0.40;;;22.20;50.10;;;;;;5112434;28;20062;-40
2021/05/14 07:11:19;;;;;;;0.63;0.47;;;22.20;50.10;;;;;;5111951;28;20100;-40
2021/05/14 07:13:46;;;;;;;0.52;0.40;;;22.10;50.00;;;;;;5101290;28;20048;-39
2021/05/14 07:16:13;;;;;;;0.47;0.47;;;22.20;50.10;;;;;;5110579;28;20051;-39
2021/05/14 07:18:41;;;;;;;0.63;0.52;;;22.20;50.10;;;;;;5113947;27;20054;-38
2021/05/14 07:21:08;;;;;;;0.50;0.50;;;22.20;50.10;;;;;;5112667;28;20167;-40
2021/05/14 07:23:53;;;;;;;0.60;0.50;;;22.20;50.10;;;;;;5111869;28;20096;-39
2021/05/14 07:26:20;;;;;;;0.68;0.50;;;22.20;50.10;;;;;;5113086;28;20040;-40
2021/05/14 07:28:48;;;;;;;0.40;0.40;;;22.20;50.00;;;;;;5112978;27;20086;-39
2021/05/14 07:31:15;;;;;;;0.63;0.50;;;22.20;50.00;;;;;;5111904;28;20092;-39
2021/05/14 07:33:44;;;;;;;0.47;0.47;;;22.20;50.10;;;;;;5112271;28;20047;-39
2021/05/14 07:36:11;;;;;;;0.50;0.50;;;22.20;50.10;;;;;;5111241;28;20079;-42
2021/05/14 07:38:38;;;;;;;0.65;0.52;;;22.20;50.60;;;;;;5112440;28;20180;-40
2021/05/14 07:41:07;;;;;;;0.40;0.40;;;22.20;50.00;;;;;;5099537;28;20065;-40
2021/05/14 07:43:35;;;;;;;0.80;0.52;;;22.30;50.10;;;;;;5112110;28;20056;-40
2021/05/14 07:46:03;;;;;;;0.47;0.47;;;22.30;50.10;;;;;;5112504;28;20056;-40
2021/05/14 07:48:30;;;;;;;0.73;0.50;;;22.20;50.00;;;;;;5110932;28;20093;-40
2021/05/14 07:50:57;;;;;;;0.40;0.40;;;22.20;50.00;;;;;;5112495;27;20069;-45
2021/05/14 07:53:24;;;;;;;0.70;0.50;;;22.20;50.00;;;;;;5111946;28;20584;-45
2021/05/14 07:55:51;;;;;;;0.40;0.40;;;22.20;49.90;;;;;;5112069;28;20039;-43
2021/05/14 07:58:20;;;;;;;0.57;0.47;;;22.20;49.90;;;;;;5112480;28;20048;-41
2021/05/14 08:00:49;;;;;;;0.65;0.50;;;22.20;49.90;;;;;;5081691;28;20629;-42
2021/05/14 08:03:17;;;;;;;0.63;0.50;;;22.20;49.90;;;;;;5112402;28;20043;-41
2021/05/14 08:05:46;;;;;;;0.47;0.40;;;22.30;50.00;;;;;;5111992;28;20126;-41
2021/05/14 08:08:17;;;;;;;0.80;0.40;;;22.20;49.90;;;;;;5110293;28;20048;-40
2021/05/14 08:10:45;;;;;;;0.63;0.50;;;22.30;50.00;;;;;;5112237;28;20055;-42
2021/05/14 08:13:22;;;;;;;0.57;0.40;;;22.30;49.90;;;;;;5111070;28;20054;-40
2021/05/14 08:15:49;;;;;;;0.30;0.30;;;22.30;49.90;;;;;;5110948;28;20051;-42
2021/05/14 08:18:18;;;;;;;0.60;0.40;;;22.30;49.90;;;;;;5111964;28;20055;-41
2021/05/14 08:20:46;;;;;;;0.40;0.40;;;22.30;49.90;;;;;;5110084;28;20048;-43
2021/05/14 08:23:17;;;;;;;0.65;0.40;;;22.30;50.50;;;;;;5111702;28;20048;-41
2021/05/14 08:25:45;;;;;;;0.80;0.60;;;22.30;49.90;;;;;;5111477;28;20047;-42
2021/05/14 08:28:12;;;;;;;0.50;0.50;;;22.30;49.90;;;;;;5110627;28;20457;-41
2021/05/14 08:30:41;;;;;;;0.52;0.45;;;22.30;49.90;;;;;;5112828;28;20047;-40
2021/05/14 08:33:09;;;;;;;0.43;0.40;;;22.30;49.80;;;;;;5110506;27;20694;-42
2021/05/14 08:35:37;;;;;;;0.60;0.30;;;22.30;49.90;;;;;;5111762;28;20044;-40
2021/05/14 08:38:06;;;;;;;0.43;0.40;;;22.30;49.80;;;;;;5111820;28;20047;-40
2021/05/14 08:40:34;;;;;;;0.50;0.38;;;22.30;49.80;;;;;;5109650;28;20047;-40
2021/05/14 08:43:07;;;;;;;1.20;0.50;;;22.30;49.80;;;;;;5112222;28;20052;-40
2021/05/14 08:45:34;;;;;;;0.50;0.40;;;22.30;49.80;;;;;;5109451;28;20406;-40
2021/05/14 08:48:03;;;;;;;0.65;0.50;;;22.30;49.80;;;;;;5111182;28;20051;-40
2021/05/14 08:50:31;;;;;;;0.70;0.60;;;22.30;49.80;;;;;;5111921;28;20043;-41
2021/05/14 08:52:59;;;;;;;0.75;0.70;;;22.30;50.00;;;;;;5110903;27;20043;-41
2021/05/14 08:55:26;;;;;;;0.70;0.60;;;22.30;49.70;;;;;;5111601;28;20039;-40
2021/05/14 08:57:53;;;;;;;0.52;0.40;;;22.30;49.70;;;;;;5099569;28;20048;-41
2021/05/14 09:00:21;;;;;;;0.60;0.45;;;22.30;49.70;;;;;;5110435;28;20040;-41
2021/05/14 09:02:50;;;;;;;0.77;0.50;;;22.30;49.70;;;;;;5111379;28;20052;-40
2021/05/14 09:05:28;;;;;;;0.77;0.43;;;22.30;49.70;;;;;;5109330;28;20490;-41
2021/05/14 09:07:56;;;;;;;0.63;0.50;;;22.30;49.70;;;;;;5110353;27;20088;-40
2021/05/14 09:10:25;;;;;;;0.30;0.30;;;22.30;49.70;;;;;;5111146;28;20051;-39
2021/05/14 09:12:53;;;;;;;0.73;0.47;;;22.30;49.70;;;;;;5109397;28;20399;-40
2021/05/14 09:15:28;;;;;;;0.60;0.30;;;22.30;49.70;;;;;;5110934;28;20055;-40
2021/05/14 09:18:23;;;;;;;0.52;0.40;;;22.30;49.70;;;;;;5110350;28;20050;-40
2021/05/14 09:20:58;;;;;;;0.43;0.30;;;22.30;49.70;;;;;;5109347;28;20044;-40
2021/05/14 09:23:32;;;;;;;0.60;0.40;;;22.30;49.70;;;;;;5110735;28;20043;-41
2021/05/14 09:26:10;;;;;;;0.70;0.50;;;22.30;49.70;;;;;;5110223;28;20136;-40
2021/05/14 09:28:40;;;;;;;0.55;0.50;;;22.30;49.70;;;;;;5108905;28;20105;-43
2021/05/14 09:31:16;;;;;;;0.65;0.32;;;22.30;49.70;;;;;;5111733;28;20097;-42
2021/05/14 09:34:03;;;;;;;0.45;0.40;;;22.30;49.70;;;;;;5109619;28;20518;-40
2021/05/14 09:36:32;;;;;;;0.43;0.40;;;22.30;49.70;;;;;;5109703;28;20491;-41
2021/05/14 09:39:02;;;;;;;0.30;0.30;;;22.30;49.70;;;;;;5111084;28;20740;-40
2021/05/14 09:41:43;;;;;;;0.35;0.35;;;22.30;49.70;;;;;;5108623;28;20051;-40
2021/05/14 09:44:16;;;;;;;0.60;0.32;;;22.30;49.70;;;;;;5110198;28;20040;-42
2021/05/14 09:46:55;;;;;;;0.73;0.40;;;22.30;49.70;;;;;;5110394;28;20051;-40
2021/05/14 09:49:25;;;;;;;0.38;0.32;;;22.30;49.70;;;;;;5108564;28;20100;-40
2021/05/14 09:52:05;;;;;;;0.50;0.40;;;22.30;49.70;;;;;;5110559;28;20086;-40
2021/05/14 09:54:42;;;;;;;0.40;0.25;;;22.30;49.70;;;;;;5110254;28;20083;-40
2021/05/14 10:00:05;;;;;;;0.77;0.40;;;22.30;49.70;;;;;;5113733;28;20036;-40
2021/05/14 10:02:35;;;;;;;0.82;0.40;;;22.30;49.70;;;;;;5112508;28;20063;-39
2021/05/14 10:05:15;;;;;;;14.15;1.30;;;22.30;49.80;;;;;;5112438;27;20418;-40
2021/05/14 10:07:42;;;;;;;39.47;2.15;;;22.30;50.00;;;;;;5111980;28;20506;-41
2021/05/14 10:10:11;;;;;;;14.77;1.65;;;22.30;50.00;;;;;;5112925;27;20104;-40
2021/05/14 10:12:39;;;;;;;38.15;2.17;;;22.30;50.00;;;;;;5112133;28;20049;-41
2021/05/14 10:15:08;;;;;;;28.60;1.88;;;22.30;50.00;;;;;;5113712;28;20060;-44
2021/05/14 10:17:37;;;;;;;20.10;1.35;;;22.30;50.00;;;;;;5112636;28;20040;-41
2021/05/14 10:20:11;;;;;;;23.52;1.30;;;22.30;50.20;;;;;;5114308;28;20419;-42
2021/05/14 10:22:39;;;;;;;15.43;1.70;;;22.30;50.30;;;;;;5113542;28;20047;-42
2021/05/14 10:25:07;;;;;;;9.63;1.60;;;22.30;50.20;;;;;;5113417;28;20047;-41
2021/05/14 10:27:46;;;;;;;17.17;1.25;;;22.30;50.20;;;;;;5114688;28;20051;-43
2021/05/14 10:30:14;;;;;;;8.60;1.17;;;22.30;50.20;;;;;;5113645;27;20051;-44
2021/05/14 10:32:44;;;;;;;15.50;1.55;;;22.30;50.20;;;;;;5121362;27;20043;-43
2021/05/14 10:35:13;;;;;;;19.45;1.33;;;22.40;50.20;;;;;;5132333;27;20036;-43
2021/05/14 10:37:47;;;;;;;9.82;1.17;;;22.30;50.20;;;;;;5133856;27;20050;-40
2021/05/14 10:40:29;;;;;;;8.13;1.15;;;22.30;50.20;;;;;;5131647;27;20047;-42
2021/05/14 10:42:58;;;;;;;5.50;0.90;;;22.30;50.20;;;;;;5116912;27;20491;-41
2021/05/14 10:45:34;;;;;;;13.05;0.90;;;22.30;50.20;;;;;;5119650;27;20135;-44
2021/05/14 10:48:03;;;;;;;15.25;1.63;;;22.30;50.20;;;;;;5129556;27;20090;-41
2021/05/14 10:50:36;;;;;;;10.43;0.98;;;22.40;50.20;;;;;;5116695;27;20092;-41
2021/05/14 10:53:36;;;;;;;11.07;0.90;;;22.30;50.10;;;;;;5116886;27;20036;-41
2021/05/14 10:56:10;;;;;;;4.78;0.80;;;22.30;50.10;;;;;;5117787;27;20066;-42
2021/05/14 10:58:55;;;;;;;9.35;0.77;;;22.30;50.10;;;;;;5115422;28;20402;-42
2021/05/14 11:01:46;;;;;;;11.55;0.80;;;22.30;50.10;;;;;;5124171;27;20040;-41
2021/05/14 11:04:13;;;;;;;6.07;0.73;;;22.30;50.10;;;;;;5114700;27;20051;-41
2021/05/14 11:06:46;;;;;;;9.52;0.75;;;22.30;50.10;;;;;;5117600;27;20048;-41
2021/05/14 11:09:14;;;;;;;3.58;0.70;;;22.30;50.10;;;;;;5125468;27;20095;-41
2021/05/14 11:11:56;;;;;;;11.57;0.90;;;22.30;50.10;;;;;;5122898;27;20044;-43
2021/05/14 11:14:25;;;;;;;10.00;0.93;;;22.30;50.10;;;;;;5125103;27;20104;-41
2021/05/14 11:16:56;;;;;;;5.50;0.82;;;22.30;50.00;;;;;;5127883;27;20054;-41
2021/05/14 11:19:30;;;;;;;5.93;0.70;;;22.30;50.00;;;;;;5107772;27;20126;-41
2021/05/14 11:22:15;;;;;;;9.95;1.35;;;22.30;50.00;;;;;;5122906;27;20213;-41
2021/05/14 11:24:43;;;;;;;11.93;1.02;;;22.40;50.60;;;;;;5117765;27;20047;-40
2021/05/14 11:27:13;;;;;;;3.00;0.82;;;22.40;50.00;;;;;;5098018;28;20391;-41
2021/05/14 11:29:44;;;;;;;5.03;1.00;;;22.40;50.10;;;;;;5113451;27;20123;-41
2021/05/14 11:32:15;;;;;;;3.78;1.17;;;22.40;50.10;;;;;;5122861;27;20455;-40
2021/05/14 11:35:13;;;;;;;6.35;0.70;;;22.40;50.10;;;;;;5119565;27;20047;-40
2021/05/14 11:37:56;;;;;;;6.85;0.82;;;22.40;50.10;;;;;;5110281;28;20549;-46
2021/05/14 11:40:35;;;;;;;18.97;1.60;;;22.40;50.20;;;;;;5110421;28;20070;-43
2021/05/14 11:43:07;;;;;;;23.80;2.03;;;22.40;50.30;;;;;;5110326;28;20096;-43
2021/05/14 11:45:38;;;;;;;27.83;3.30;;;22.40;50.30;;;;;;5111054;28;20058;-44
2021/05/14 11:48:12;;;;;;;77.68;4.97;;;22.40;50.30;;;;;;5109914;28;20112;-40
2021/05/14 11:50:48;;;;;;;60.08;4.70;;;22.40;50.30;;;;;;5109387;28;20047;-42
2021/05/14 11:53:20;;;;;;;49.40;3.45;;;22.40;50.30;;;;;;5111013;28;20047;-41
2021/05/14 11:55:52;;;;;;;122.43;6.28;;;22.40;50.20;;;;;;5108518;28;20047;-42
2021/05/14 11:58:20;;;;;;;174.27;9.05;;;22.40;50.20;;;;;;5109524;28;20093;-44
2021/05/14 12:00:52;;;;;;;78.90;4.95;;;22.40;50.30;;;;;;5110330;28;20059;-43
2021/05/14 12:03:22;;;;;;;52.40;4.82;;;22.40;50.30;;;;;;5109623;28;20056;-42
2021/05/14 12:05:51;;;;;;;47.72;3.17;;;22.40;50.40;;;;;;5112618;28;20075;-42
2021/05/14 12:08:20;;;;;;;54.70;3.28;;;22.40;50.40;;;;;;5111472;28;20277;-42
2021/05/14 12:10:55;;;;;;;58.33;4.78;;;22.40;50.40;;;;;;5110861;27;20043;-42
2021/05/14 12:13:28;;;;;;;80.03;5.35;;;22.40;50.40;;;;;;5111614;28;20039;-42
2021/05/14 12:16:01;;;;;;;43.95;3.20;;;22.40;50.40;;;;;;5109788;28;20100;-42
2021/05/14 12:18:30;;;;;;;47.10;3.70;;;22.40;50.40;;;;;;5111298;28;20795;-43
2021/05/14 12:20:59;;;;;;;73.43;5.28;;;22.40;50.40;;;;;;5099698;28;20163;-44
2021/05/14 12:23:28;;;;;;;116.55;5.93;;;22.40;50.40;;;;;;5110229;27;20131;-41
2021/05/14 12:26:01;;;;;;;93.03;6.68;;;22.40;50.40;;;;;;5101365;28;20051;-41
2021/05/14 12:28:41;;;;;;;59.25;5.25;;;22.40;50.40;;;;;;5111207;28;20525;-43
2021/05/14 12:31:14;;;;;;;35.13;2.83;;;22.40;50.40;;;;;;5110696;28;20062;-41
2021/05/14 12:33:54;;;;;;;43.85;3.13;;;22.40;50.30;;;;;;5112324;28;20051;-41
2021/05/14 12:36:27;;;;;;;45.67;3.15;;;22.40;50.30;;;;;;5110800;28;20170;-41
2021/05/14 12:39:06;;;;;;;34.10;3.08;;;22.40;50.40;;;;;;5111124;27;20101;-41
2021/05/14 12:41:57;;;;;;;37.30;2.45;;;22.40;50.40;;;;;;5112115;28;20048;-40
2021/05/14 12:44:29;;;;;;;33.60;3.63;;;22.40;50.30;;;;;;5110324;28;20047;-41
2021/05/14 12:47:04;;;;;;;38.30;3.67;;;22.40;50.40;;;;;;5111329;28;20050;-42
2021/05/14 12:49:58;;;;;;;27.60;2.65;;;22.40;50.40;;;;;;5111165;28;20051;-41
2021/05/14 12:52:29;;;;;;;54.00;3.83;;;22.40;50.30;;;;;;5100240;28;20047;-40
2021/05/14 12:55:02;;;;;;;43.17;3.55;;;22.40;50.90;;;;;;5110682;28;20043;-41
2021/05/14 12:57:33;;;;;;;30.17;2.37;;;22.40;50.40;;;;;;5111563;28;20466;-40
2021/05/14 13:00:04;;;;;;;80.50;5.55;;;22.40;50.30;;;;;;5108702;28;20043;-40
2021/05/14 13:02:36;;;;;;;68.68;4.50;;;22.40;50.30;;;;;;5111012;28;20074;-41
2021/05/14 13:05:09;;;;;;;50.08;3.78;;;22.40;50.30;;;;;;5111396;28;20130;-41
2021/05/14 13:07:38;;;;;;;55.22;4.20;;;22.40;50.20;;;;;;5109484;28;20089;-40